Time;durP1;ratioP1;P1;durP2;ratioP2;P2;SDS_P1;SDS_P2;PMS_P1;PMS_P2;Temp;Humidity;BMP_temperature;BMP_pressure;BME280_temperature;BME280_humidity;BME280_pressure;Samples;Min_cycle;Max_cycle;Signal;HPM_P1;HPM_P2
2021/06/07 00:03:06;;;;;;;8.75;6.20;;;;;;;;;;10321001;28;20049;-58
2021/06/07 00:08:04;;;;;;;6.95;6.32;;;;;;;;;;10319897;28;20178;-58
2021/06/07 00:13:02;;;;;;;10.60;5.88;;;;;;;;;;10320941;28;20084;-58
2021/06/07 00:18:02;;;;;;;10.25;6.85;;;;;;;;;;10320594;28;20048;-58
2021/06/07 00:23:01;;;;;;;7.95;6.70;;;;;;;;;;10320691;28;20040;-58
2021/06/07 00:27:59;;;;;;;6.63;6.05;;;;;;;;;;10320098;28;20087;-58
2021/06/07 00:32:57;;;;;;;5.70;5.18;;;;;;;;;;10319573;28;20060;-57
2021/06/07 00:37:59;;;;;;;9.23;6.00;;;;;;;;;;10319473;28;20059;-58
2021/06/07 00:42:58;;;;;;;6.55;5.95;;;;;;;;;;10318725;28;20059;-58
2021/06/07 00:47:57;;;;;;;13.68;6.30;;;;;;;;;;10318871;28;20501;-57
2021/06/07 00:53:02;;;;;;;8.43;6.35;;;;;;;;;;10319011;28;20078;-58
2021/06/07 00:58:03;;;;;;;10.35;6.05;;;;;;;;;;10318524;28;20052;-57
2021/06/07 01:03:01;;;;;;;6.35;5.75;;;;;;;;;;10318597;28;20041;-58
2021/06/07 01:08:13;;;;;;;13.85;7.38;;;;;;;;;;10318686;28;20087;-58
2021/06/07 01:13:13;;;;;;;10.18;6.47;;;;;;;;;;10318643;28;20051;-58
2021/06/07 01:18:12;;;;;;;8.77;6.70;;;;;;;;;;10317694;28;20524;-58
2021/06/07 01:23:11;;;;;;;8.50;7.50;;;;;;;;;;10317983;28;20079;-58
2021/06/07 01:28:11;;;;;;;8.18;7.25;;;;;;;;;;10318026;28;20080;-58
2021/06/07 01:33:09;;;;;;;8.68;7.35;;;;;;;;;;10316911;28;20512;-58
2021/06/07 01:38:08;;;;;;;9.48;8.23;;;;;;;;;;10317426;28;20063;-58
2021/06/07 01:43:07;;;;;;;13.10;9.05;;;;;;;;;;10317638;28;20067;-57
2021/06/07 01:48:06;;;;;;;9.95;8.65;;;;;;;;;;10317187;28;20076;-58
2021/06/07 01:53:07;;;;;;;15.10;9.05;;;;;;;;;;10316226;28;20068;-58
2021/06/07 01:58:05;;;;;;;9.02;7.07;;;;;;;;;;10317109;28;20052;-58
2021/06/07 02:03:04;;;;;;;11.15;7.47;;;;;;;;;;10297141;28;20048;-58
2021/06/07 02:08:04;;;;;;;13.70;7.65;;;;;;;;;;10298616;28;20076;-58
2021/06/07 02:13:02;;;;;;;7.35;6.70;;;;;;;;;;10300666;28;20060;-58
2021/06/07 02:18:01;;;;;;;9.50;6.95;;;;;;;;;;10299034;28;20127;-58
2021/06/07 02:23:00;;;;;;;9.70;6.88;;;;;;;;;;10301791;28;20041;-58
2021/06/07 02:27:59;;;;;;;8.68;7.80;;;;;;;;;;10283992;28;20084;-57
2021/06/07 02:32:58;;;;;;;8.57;7.60;;;;;;;;;;10297296;28;20051;-58
2021/06/07 02:37:56;;;;;;;11.77;7.88;;;;;;;;;;10315353;28;20048;-57
2021/06/07 02:42:55;;;;;;;9.98;7.50;;;;;;;;;;10306818;28;20088;-58
2021/06/07 02:47:56;;;;;;;9.30;8.40;;;;;;;;;;10303876;28;20473;-58
2021/06/07 02:52:54;;;;;;;9.38;8.30;;;;;;;;;;10287747;28;20073;-58
2021/06/07 02:57:52;;;;;;;11.00;7.93;;;;;;;;;;10297359;28;20037;-58
2021/06/07 03:02:52;;;;;;;9.68;6.95;;;;;;;;;;10291996;28;20080;-56
2021/06/07 03:07:50;;;;;;;12.55;7.60;;;;;;;;;;10297641;28;20065;-57
2021/06/07 03:12:47;;;;;;;8.15;6.72;;;;;;;;;;10290757;28;20106;-55
2021/06/07 03:17:46;;;;;;;11.00;7.18;;;;;;;;;;10297626;28;20469;-57
2021/06/07 03:22:45;;;;;;;11.00;8.65;;;;;;;;;;10300630;28;20100;-57
2021/06/07 03:27:43;;;;;;;10.30;8.63;;;;;;;;;;10287901;28;20075;-57
2021/06/07 03:32:41;;;;;;;10.18;7.10;;;;;;;;;;10304938;28;20071;-57
2021/06/07 03:37:40;;;;;;;15.00;9.15;;;;;;;;;;10290758;28;21492;-54
2021/06/07 03:42:39;;;;;;;15.88;9.82;;;;;;;;;;10277088;28;20068;-57
2021/06/07 03:47:37;;;;;;;16.92;12.18;;;;;;;;;;10279250;28;20080;-57
2021/06/07 03:52:35;;;;;;;19.08;11.07;;;;;;;;;;10279066;28;20064;-58
2021/06/07 03:57:33;;;;;;;30.25;13.30;;;;;;;;;;10277539;28;20502;-56
2021/06/07 04:02:32;;;;;;;16.67;11.93;;;;;;;;;;10278076;28;20045;-57
2021/06/07 04:07:30;;;;;;;23.00;16.60;;;;;;;;;;10278828;28;20087;-57
2021/06/07 04:12:28;;;;;;;15.10;9.60;;;;;;;;;;10278141;28;20041;-56
2021/06/07 04:17:26;;;;;;;24.58;13.60;;;;;;;;;;10277874;28;20453;-57
2021/06/07 04:22:25;;;;;;;13.75;10.55;;;;;;;;;;10278372;28;20076;-57
2021/06/07 04:27:23;;;;;;;68.40;56.92;;;;;;;;;;10277767;28;20087;-57
2021/06/07 04:32:21;;;;;;;24.08;13.75;;;;;;;;;;10277392;28;20068;-57
2021/06/07 04:37:19;;;;;;;19.17;11.25;;;;;;;;;;10277147;28;20037;-56
2021/06/07 04:42:18;;;;;;;142.30;123.40;;;;;;;;;;10277527;28;20077;-57
2021/06/07 04:47:16;;;;;;;31.15;22.35;;;;;;;;;;10277060;28;20084;-55
2021/06/07 04:52:14;;;;;;;25.67;15.20;;;;;;;;;;10275319;28;20470;-54
2021/06/07 04:57:12;;;;;;;19.33;11.88;;;;;;;;;;10273456;28;20083;-57
2021/06/07 05:02:11;;;;;;;73.50;54.38;;;;;;;;;;10272028;28;20517;-57
2021/06/07 05:07:09;;;;;;;26.48;15.10;;;;;;;;;;10272799;28;20087;-57
2021/06/07 05:12:08;;;;;;;21.80;12.02;;;;;;;;;;10275840;28;20073;-57
2021/06/07 05:17:06;;;;;;;20.67;13.18;;;;;;;;;;10275484;28;20502;-57
2021/06/07 05:22:05;;;;;;;13.32;10.27;;;;;;;;;;10276153;28;20087;-56
2021/06/07 05:27:03;;;;;;;13.07;7.65;;;;;;;;;;10275065;28;20076;-57
2021/06/07 05:32:01;;;;;;;12.50;9.73;;;;;;;;;;10275686;28;20490;-57
2021/06/07 05:36:59;;;;;;;12.68;7.40;;;;;;;;;;10274970;28;20083;-57
2021/06/07 05:41:59;;;;;;;8.63;7.35;;;;;;;;;;10274090;28;20045;-57
2021/06/07 05:46:56;;;;;;;8.65;7.43;;;;;;;;;;10274699;28;20088;-56
2021/06/07 05:51:55;;;;;;;17.35;11.55;;;;;;;;;;10274945;28;20076;-56
2021/06/07 05:56:54;;;;;;;13.32;9.85;;;;;;;;;;10276549;28;20076;-56
2021/06/07 06:01:53;;;;;;;13.10;9.93;;;;;;;;;;10282862;28;20072;-57
2021/06/07 06:06:51;;;;;;;14.70;8.25;;;;;;;;;;10274064;28;20078;-57
2021/06/07 06:11:49;;;;;;;11.25;7.97;;;;;;;;;;10270559;28;20084;-57
2021/06/07 06:16:47;;;;;;;11.98;8.18;;;;;;;;;;10269938;28;20099;-56
2021/06/07 06:21:46;;;;;;;13.88;7.97;;;;;;;;;;10269884;28;20065;-56
2021/06/07 06:26:44;;;;;;;15.13;7.55;;;;;;;;;;10272900;28;20080;-57
2021/06/07 06:31:42;;;;;;;11.60;8.88;;;;;;;;;;10273447;28;20080;-57
2021/06/07 06:36:39;;;;;;;10.00;7.18;;;;;;;;;;10273477;28;20037;-56
2021/06/07 06:41:39;;;;;;;12.02;8.90;;;;;;;;;;10273341;28;20072;-56
2021/06/07 06:46:37;;;;;;;9.00;6.20;;;;;;;;;;10273495;28;20053;-55
2021/06/07 06:51:35;;;;;;;4.85;4.30;;;;;;;;;;10273204;28;20099;-58
2021/06/07 06:56:33;;;;;;;6.53;5.30;;;;;;;;;;10274655;28;20052;-58
2021/06/07 07:01:34;;;;;;;5.28;3.50;;;;;;;;;;10281193;28;20075;-58
2021/06/07 07:06:32;;;;;;;8.55;4.60;;;;;;;;;;10280226;28;20521;-58
2021/06/07 07:11:30;;;;;;;5.38;4.22;;;;;;;;;;10280186;28;20071;-57
2021/06/07 07:16:29;;;;;;;10.38;3.58;;;;;;;;;;10280321;28;20052;-58
2021/06/07 07:21:29;;;;;;;4.93;4.05;;;;;;;;;;10280107;28;20045;-55
2021/06/07 07:26:27;;;;;;;5.30;3.50;;;;;;;;;;10279806;28;20052;-58
2021/06/07 07:31:25;;;;;;;4.63;4.13;;;;;;;;;;10279806;28;20084;-57
2021/06/07 07:36:23;;;;;;;8.82;4.53;;;;;;;;;;10279388;28;20068;-58
2021/06/07 07:41:22;;;;;;;3.83;3.53;;;;;;;;;;10279434;28;20054;-58
2021/06/07 07:46:20;;;;;;;3.83;2.90;;;;;;;;;;10279375;28;20103;-58
2021/06/07 07:51:18;;;;;;;6.75;3.75;;;;;;;;;;10279037;28;20091;-57
2021/06/07 07:56:16;;;;;;;2.83;2.58;;;;;;;;;;10278309;28;20037;-57
2021/06/07 08:01:15;;;;;;;4.47;3.95;;;;;;;;;;10278394;28;20479;-56
2021/06/07 08:06:13;;;;;;;13.57;11.60;;;;;;;;;;10278376;28;20044;-56
2021/06/07 08:11:11;;;;;;;16.20;11.85;;;;;;;;;;10276319;28;20083;-57
2021/06/07 08:16:09;;;;;;;13.30;9.85;;;;;;;;;;10278196;28;20049;-56
2021/06/07 08:21:09;;;;;;;18.20;15.55;;;;;;;;;;10278480;28;20049;-57
2021/06/07 08:26:06;;;;;;;6.32;3.45;;;;;;;;;;10277956;28;20057;-58
2021/06/07 08:31:04;;;;;;;6.53;2.83;;;;;;;;;;10277544;28;20079;-57
2021/06/07 08:36:03;;;;;;;7.78;3.00;;;;;;;;;;10277755;28;20056;-57
2021/06/07 08:41:02;;;;;;;7.72;2.55;;;;;;;;;;10277231;28;20087;-58
2021/06/07 08:46:00;;;;;;;7.05;2.38;;;;;;;;;;10275328;28;20041;-57
2021/06/07 08:51:01;;;;;;;7.97;3.10;;;;;;;;;;10276825;28;20072;-58
2021/06/07 08:55:59;;;;;;;4.30;2.75;;;;;;;;;;10276197;28;20059;-57
2021/06/07 09:00:59;;;;;;;5.15;3.00;;;;;;;;;;10276320;28;20504;-56
2021/06/07 09:05:58;;;;;;;5.75;2.33;;;;;;;;;;10276583;28;20049;-57
2021/06/07 09:10:56;;;;;;;4.45;2.50;;;;;;;;;;10275703;28;20072;-56
2021/06/07 09:15:54;;;;;;;4.05;3.03;;;;;;;;;;10275611;28;20092;-56
2021/06/07 09:20:58;;;;;;;5.80;2.78;;;;;;;;;;10274943;28;20080;-58
2021/06/07 09:25:58;;;;;;;3.45;2.65;;;;;;;;;;10277178;28;20071;-51
2021/06/07 09:30:56;;;;;;;3.33;3.03;;;;;;;;;;10293104;28;20068;-58
2021/06/07 09:36:23;;;;;;;4.72;2.70;;;;;;;;;;10315608;28;20107;-57
2021/06/07 09:41:23;;;;;;;3.45;2.80;;;;;;;;;;10315287;28;20045;-57
2021/06/07 09:46:21;;;;;;;8.68;3.17;;;;;;;;;;10315557;28;20060;-57
2021/06/07 09:51:20;;;;;;;5.32;3.60;;;;;;;;;;10315292;28;20086;-56
2021/06/07 09:56:18;;;;;;;5.65;3.22;;;;;;;;;;10315411;28;20068;-56
2021/06/07 10:01:18;;;;;;;4.88;2.70;;;;;;;;;;10315451;28;20072;-56
2021/06/07 10:06:17;;;;;;;5.70;5.18;;;;;;;;;;10314426;28;20033;-56
2021/06/07 10:11:16;;;;;;;12.55;5.50;;;;;;;;;;10315325;28;20082;-57
2021/06/07 10:16:14;;;;;;;3.50;3.20;;;;;;;;;;10314618;28;20414;-58
2021/06/07 10:21:14;;;;;;;2.97;2.35;;;;;;;;;;10314404;28;20079;-57
2021/06/07 10:26:12;;;;;;;3.28;2.97;;;;;;;;;;10309806;28;20517;-51
2021/06/07 10:31:11;;;;;;;9.60;2.63;;;;;;;;;;10283814;28;20084;-51
2021/06/07 10:36:27;;;;;;;4.13;2.90;;;;;;;;;;10280960;28;20067;-58
2021/06/07 10:41:27;;;;;;;2.83;2.63;;;;;;;;;;10281216;28;20282;-58
2021/06/07 10:46:27;;;;;;;4.10;2.70;;;;;;;;;;10280898;28;20060;-50
2021/06/07 10:51:26;;;;;;;2.95;2.70;;;;;;;;;;10281005;28;20060;-56
2021/06/07 10:56:27;;;;;;;4.00;2.53;;;;;;;;;;10280212;28;20067;-57
2021/06/07 11:01:46;;;;;;;5.30;2.95;;;;;;;;;;10279723;28;20076;-57
2021/06/07 11:06:56;;;;;;;3.80;3.20;;;;;;;;;;10280364;28;20079;-57
2021/06/07 11:11:55;;;;;;;7.07;3.10;;;;;;;;;;10278114;28;20072;-58
2021/06/07 11:16:53;;;;;;;5.85;3.10;;;;;;;;;;10292390;28;20082;-57
2021/06/07 11:21:57;;;;;;;6.32;3.83;;;;;;;;;;10321111;28;20414;-56
2021/06/07 11:26:56;;;;;;;4.13;3.58;;;;;;;;;;10320633;28;20075;-57
2021/06/07 11:31:55;;;;;;;5.95;4.25;;;;;;;;;;10297193;28;20073;-57
2021/06/07 11:36:58;;;;;;;3.08;2.78;;;;;;;;;;10288302;28;20045;-58
2021/06/07 11:42:04;;;;;;;7.43;3.17;;;;;;;;;;10279379;28;20418;-57
2021/06/07 11:47:15;;;;;;;5.13;2.97;;;;;;;;;;10279282;28;20073;-57
2021/06/07 11:52:13;;;;;;;5.45;3.75;;;;;;;;;;10279207;28;20080;-55
2021/06/07 11:57:12;;;;;;;4.80;4.03;;;;;;;;;;10279197;28;20045;-57
2021/06/07 12:02:11;;;;;;;3.17;2.88;;;;;;;;;;10285566;28;20076;-57
2021/06/07 12:07:10;;;;;;;6.10;2.53;;;;;;;;;;10297826;28;20052;-54
2021/06/07 12:12:09;;;;;;;4.55;2.92;;;;;;;;;;10278043;28;20080;-57
2021/06/07 12:17:15;;;;;;;3.65;3.03;;;;;;;;;;10278242;28;20525;-59
2021/06/07 12:22:26;;;;;;;3.75;2.72;;;;;;;;;;10277141;28;20095;-58
2021/06/07 12:32:49;;;;;;;5.93;2.63;;;;;;;;;;10288159;28;20467;-57
2021/06/07 12:37:48;;;;;;;4.63;3.08;;;;;;;;;;10288457;28;20084;-59
2021/06/07 12:42:47;;;;;;;5.47;3.17;;;;;;;;;;10277280;28;20049;-57
2021/06/07 12:47:45;;;;;;;4.93;3.42;;;;;;;;;;10276736;28;20045;-57
2021/06/07 12:52:47;;;;;;;5.82;3.10;;;;;;;;;;10276697;28;20084;-57
2021/06/07 12:57:45;;;;;;;5.18;3.53;;;;;;;;;;10271500;28;20072;-57
2021/06/07 13:02:43;;;;;;;4.78;2.30;;;;;;;;;;10272429;28;20069;-57
2021/06/07 13:07:40;;;;;;;3.22;2.72;;;;;;;;;;10272690;28;20068;-57
2021/06/07 13:12:40;;;;;;;3.67;2.55;;;;;;;;;;10276021;28;20498;-58
2021/06/07 13:17:38;;;;;;;3.03;2.13;;;;;;;;;;10275508;28;20494;-54
2021/06/07 13:22:38;;;;;;;3.30;2.35;;;;;;;;;;10275721;28;20080;-57
2021/06/07 13:27:36;;;;;;;3.13;2.40;;;;;;;;;;10275558;28;20072;-56
2021/06/07 13:32:36;;;;;;;4.50;3.05;;;;;;;;;;10286295;28;20079;-57
2021/06/07 13:37:34;;;;;;;3.40;2.80;;;;;;;;;;10302796;28;20056;-57
2021/06/07 13:42:42;;;;;;;5.07;2.47;;;;;;;;;;10295960;28;20060;-57
2021/06/07 13:47:48;;;;;;;7.05;5.45;;;;;;;;;;10292550;28;20480;-56
2021/06/07 13:52:50;;;;;;;4.40;3.00;;;;;;;;;;10300699;28;20109;-58
2021/06/07 13:58:09;;;;;;;6.43;2.75;;;;;;;;;;10297318;28;20072;-58
2021/06/07 14:03:10;;;;;;;5.90;2.88;;;;;;;;;;10273951;28;20068;-57
2021/06/07 14:08:09;;;;;;;4.78;2.83;;;;;;;;;;10273864;28;20401;-58
2021/06/07 14:13:07;;;;;;;8.32;2.60;;;;;;;;;;10274366;28;20087;-58
2021/06/07 14:18:06;;;;;;;3.90;2.65;;;;;;;;;;10273735;28;20053;-57
2021/06/07 14:28:32;;;;;;;2.95;2.65;;;;;;;;;;10279287;28;20083;-55
2021/06/07 14:33:30;;;;;;;3.85;2.60;;;;;;;;;;10279517;28;20107;-57
2021/06/07 14:38:30;;;;;;;6.43;3.67;;;;;;;;;;10284406;28;20072;-58
2021/06/07 14:43:29;;;;;;;4.60;2.95;;;;;;;;;;10289023;28;20354;-57
2021/06/07 14:48:27;;;;;;;10.60;5.30;;;;;;;;;;10285432;28;20526;-63
2021/06/07 14:53:25;;;;;;;4.63;2.53;;;;;;;;;;10285281;28;20068;-60
2021/06/07 14:58:25;;;;;;;2.95;2.30;;;;;;;;;;10280837;28;20474;-61
2021/06/07 15:03:23;;;;;;;4.78;3.10;;;;;;;;;;10268331;28;20096;-62
2021/06/07 15:08:21;;;;;;;3.55;3.25;;;;;;;;;;10272268;28;20084;-62
2021/06/07 15:13:21;;;;;;;6.05;3.83;;;;;;;;;;10268649;28;20076;-63
2021/06/07 15:18:20;;;;;;;6.38;2.75;;;;;;;;;;10271761;28;20092;-62
2021/06/07 15:23:19;;;;;;;7.63;5.05;;;;;;;;;;10280723;28;20107;-61
2021/06/07 15:28:17;;;;;;;5.32;3.47;;;;;;;;;;10294991;28;20537;-63
2021/06/07 15:33:16;;;;;;;3.58;2.88;;;;;;;;;;10304291;28;20468;-64
2021/06/07 15:38:17;;;;;;;7.82;3.55;;;;;;;;;;10303217;28;20493;-64
2021/06/07 15:43:15;;;;;;;8.20;3.40;;;;;;;;;;10321064;28;20458;-64
2021/06/07 15:48:13;;;;;;;4.72;2.97;;;;;;;;;;10320992;28;20087;-64
2021/06/07 15:53:11;;;;;;;3.30;2.70;;;;;;;;;;10304349;28;20084;-64
2021/06/07 15:58:10;;;;;;;3.80;3.25;;;;;;;;;;10284415;28;20060;-63
2021/06/07 16:03:08;;;;;;;5.90;3.65;;;;;;;;;;10293659;28;20079;-64
2021/06/07 16:08:06;;;;;;;4.50;3.17;;;;;;;;;;10291718;28;20069;-64
2021/06/07 16:13:04;;;;;;;8.10;3.70;;;;;;;;;;10293425;28;20072;-63
2021/06/07 16:18:07;;;;;;;5.25;3.50;;;;;;;;;;10292754;28;20098;-56
2021/06/07 16:23:06;;;;;;;8.00;4.45;;;;;;;;;;10293012;28;20095;-57
2021/06/07 16:28:04;;;;;;;5.95;4.05;;;;;;;;;;10297589;28;20069;-54
2021/06/07 16:33:05;;;;;;;6.47;3.33;;;;;;;;;;10294014;28;20047;-57
2021/06/07 16:38:02;;;;;;;8.75;4.78;;;;;;;;;;10275303;28;20076;-58
2021/06/07 16:43:00;;;;;;;9.60;4.57;;;;;;;;;;10278494;28;20072;-57
2021/06/07 16:47:58;;;;;;;6.32;3.92;;;;;;;;;;10293669;28;20472;-55
2021/06/07 16:52:58;;;;;;;9.48;6.03;;;;;;;;;;10291133;28;20084;-56
2021/06/07 16:57:58;;;;;;;13.90;6.07;;;;;;;;;;10287513;28;20535;-56
2021/06/07 17:02:56;;;;;;;7.65;4.35;;;;;;;;;;10292040;28;20078;-58
2021/06/07 17:07:53;;;;;;;6.43;5.28;;;;;;;;;;10287667;28;20057;-58
2021/06/07 17:12:59;;;;;;;7.53;3.70;;;;;;;;;;10277379;28;20085;-57
2021/06/07 17:17:57;;;;;;;4.80;3.72;;;;;;;;;;10308346;28;20068;-57
2021/06/07 17:23:03;;;;;;;9.13;5.53;;;;;;;;;;10282402;28;20084;-51
2021/06/07 17:28:03;;;;;;;5.45;4.60;;;;;;;;;;10285426;28;20099;-51
2021/06/07 17:33:02;;;;;;;8.60;4.60;;;;;;;;;;10292421;28;20083;-58
2021/06/07 17:38:00;;;;;;;10.73;3.85;;;;;;;;;;10276622;28;20540;-57
2021/06/07 17:42:57;;;;;;;11.23;5.53;;;;;;;;;;10277202;28;20045;-57
2021/06/07 17:47:57;;;;;;;8.25;4.97;;;;;;;;;;10276616;28;20041;-58
2021/06/07 17:52:59;;;;;;;10.90;3.88;;;;;;;;;;10276470;28;20472;-55
2021/06/07 17:57:56;;;;;;;6.75;4.00;;;;;;;;;;10276622;28;20056;-55
2021/06/07 18:02:55;;;;;;;7.35;5.00;;;;;;;;;;10276198;28;20077;-57
2021/06/07 18:07:54;;;;;;;8.95;4.25;;;;;;;;;;10276413;28;20044;-56
2021/06/07 18:12:52;;;;;;;7.43;4.55;;;;;;;;;;10275870;28;20085;-54
2021/06/07 18:17:51;;;;;;;7.60;3.85;;;;;;;;;;10276177;28;20489;-56
2021/06/07 18:22:49;;;;;;;3.63;3.20;;;;;;;;;;10275851;28;20041;-58
2021/06/07 18:27:48;;;;;;;6.82;3.92;;;;;;;;;;10275560;28;20525;-57
2021/06/07 18:32:47;;;;;;;9.45;3.13;;;;;;;;;;10275801;28;20517;-58
2021/06/07 18:37:47;;;;;;;4.65;3.00;;;;;;;;;;10284955;28;20523;-56
2021/06/07 18:42:46;;;;;;;8.15;4.00;;;;;;;;;;10288289;28;20060;-57
2021/06/07 18:47:48;;;;;;;8.23;3.60;;;;;;;;;;10310177;28;20076;-57
2021/06/07 18:52:49;;;;;;;7.88;3.67;;;;;;;;;;10276686;28;20081;-58
2021/06/07 18:57:49;;;;;;;6.97;3.65;;;;;;;;;;10301242;28;20083;-58
2021/06/07 19:02:48;;;;;;;6.88;4.60;;;;;;;;;;10300434;28;20037;-60
2021/06/07 19:07:48;;;;;;;7.82;3.83;;;;;;;;;;10297866;28;20072;-58
2021/06/07 19:12:46;;;;;;;9.68;4.70;;;;;;;;;;10282492;28;20080;-57
2021/06/07 19:17:44;;;;;;;5.22;3.70;;;;;;;;;;10298941;28;20076;-56
2021/06/07 19:22:44;;;;;;;7.65;4.78;;;;;;;;;;10322419;28;20084;-55
2021/06/07 19:27:42;;;;;;;8.32;4.28;;;;;;;;;;10321046;28;20544;-53
2021/06/07 19:32:41;;;;;;;4.93;4.38;;;;;;;;;;10321632;28;20080;-57
2021/06/07 19:37:39;;;;;;;6.97;4.40;;;;;;;;;;10322261;28;20070;-55
2021/06/07 19:42:38;;;;;;;7.45;5.40;;;;;;;;;;10322054;28;20079;-57
2021/06/07 19:47:36;;;;;;;6.65;4.47;;;;;;;;;;10321856;28;20051;-55
2021/06/07 19:52:35;;;;;;;6.13;4.07;;;;;;;;;;10321522;28;20079;-57
2021/06/07 19:57:33;;;;;;;7.68;6.97;;;;;;;;;;10321364;28;20064;-58
2021/06/07 20:02:33;;;;;;;5.10;4.68;;;;;;;;;;10321367;28;20439;-58
2021/06/07 20:07:31;;;;;;;8.57;4.15;;;;;;;;;;10320685;28;20394;-58
2021/06/07 20:12:29;;;;;;;5.15;4.65;;;;;;;;;;10320981;28;20190;-57
2021/06/07 20:17:27;;;;;;;4.38;4.00;;;;;;;;;;10320128;28;20052;-58
2021/06/07 20:22:26;;;;;;;4.55;4.15;;;;;;;;;;10320536;28;20068;-58
2021/06/07 20:27:24;;;;;;;4.47;4.07;;;;;;;;;;10318714;28;20409;-58
2021/06/07 20:32:22;;;;;;;4.55;4.15;;;;;;;;;;10320046;28;20481;-56
2021/06/07 20:37:20;;;;;;;6.20;4.07;;;;;;;;;;10308939;28;20500;-58
2021/06/07 20:42:19;;;;;;;5.50;4.07;;;;;;;;;;10289935;28;20068;-57
2021/06/07 20:47:17;;;;;;;5.45;3.92;;;;;;;;;;10287993;28;20065;-58
2021/06/07 20:52:15;;;;;;;4.60;4.20;;;;;;;;;;10290053;28;20091;-58
2021/06/07 20:57:13;;;;;;;6.30;4.43;;;;;;;;;;10283797;28;20087;-56
2021/06/07 21:02:12;;;;;;;6.78;3.92;;;;;;;;;;10302339;28;20040;-56
2021/06/07 21:07:10;;;;;;;8.73;4.47;;;;;;;;;;10312756;28;20080;-56
2021/06/07 21:12:08;;;;;;;6.15;3.97;;;;;;;;;;10310394;28;20072;-57
2021/06/07 21:17:06;;;;;;;6.68;4.80;;;;;;;;;;10277061;28;20466;-56
2021/06/07 21:22:06;;;;;;;6.47;4.63;;;;;;;;;;10281037;28;20502;-57
2021/06/07 21:27:04;;;;;;;6.75;4.82;;;;;;;;;;10296687;28;20079;-57
2021/06/07 21:32:03;;;;;;;4.75;4.25;;;;;;;;;;10309401;28;20077;-55
2021/06/07 21:37:01;;;;;;;7.10;4.25;;;;;;;;;;10276096;28;20056;-57
2021/06/07 21:42:01;;;;;;;5.97;4.22;;;;;;;;;;10274826;28;20073;-56
2021/06/07 21:46:59;;;;;;;4.50;4.10;;;;;;;;;;10275828;28;20041;-58
2021/06/07 21:51:58;;;;;;;5.72;4.57;;;;;;;;;;10276119;28;20099;-57
2021/06/07 21:56:56;;;;;;;6.75;4.20;;;;;;;;;;10275947;28;20045;-57
2021/06/07 22:01:55;;;;;;;4.60;4.13;;;;;;;;;;10276039;28;20083;-57
2021/06/07 22:06:53;;;;;;;7.05;4.50;;;;;;;;;;10275767;28;20400;-58
2021/06/07 22:11:55;;;;;;;4.68;4.15;;;;;;;;;;10275590;28;20073;-57
2021/06/07 22:16:53;;;;;;;4.75;4.30;;;;;;;;;;10275746;28;20088;-56
2021/06/07 22:21:52;;;;;;;7.90;4.93;;;;;;;;;;10273961;28;20060;-56
2021/06/07 22:26:50;;;;;;;4.75;4.03;;;;;;;;;;10274882;28;20497;-57
2021/06/07 22:31:48;;;;;;;5.68;4.15;;;;;;;;;;10283787;28;20052;-56
2021/06/07 22:36:46;;;;;;;8.77;4.53;;;;;;;;;;10283547;28;20045;-56
2021/06/07 22:41:45;;;;;;;5.53;4.60;;;;;;;;;;10283087;28;20058;-57
2021/06/07 22:46:43;;;;;;;4.93;4.53;;;;;;;;;;10283438;28;20068;-58
2021/06/07 22:51:41;;;;;;;5.60;4.95;;;;;;;;;;10283153;28;20433;-57
2021/06/07 22:56:39;;;;;;;5.90;4.47;;;;;;;;;;10282663;28;20053;-58
2021/06/07 23:01:38;;;;;;;5.20;4.70;;;;;;;;;;10282665;28;20037;-57
2021/06/07 23:06:36;;;;;;;6.88;4.90;;;;;;;;;;10282552;28;20041;-58
2021/06/07 23:11:34;;;;;;;6.05;5.28;;;;;;;;;;10282409;28;20322;-58
2021/06/07 23:16:32;;;;;;;7.80;5.72;;;;;;;;;;10282555;28;20140;-58
2021/06/07 23:21:31;;;;;;;7.22;5.47;;;;;;;;;;10281851;28;20056;-57
2021/06/07 23:26:29;;;;;;;5.60;5.10;;;;;;;;;;10281571;28;20443;-56
2021/06/07 23:31:30;;;;;;;6.43;4.97;;;;;;;;;;10280489;28;20508;-58
2021/06/07 23:36:28;;;;;;;6.18;5.43;;;;;;;;;;10281222;28;20290;-58
2021/06/07 23:41:27;;;;;;;6.15;5.22;;;;;;;;;;10279960;28;20064;-57
2021/06/07 23:46:25;;;;;;;6.45;5.32;;;;;;;;;;10280000;28;20041;-55
2021/06/07 23:51:23;;;;;;;5.97;5.13;;;;;;;;;;10280045;28;20088;-57
2021/06/07 23:56:21;;;;;;;5.15;4.60;;;;;;;;;;10279545;28;20517;-58
